Nearby METAR Reports

 

KMTN - Baltimore/Martin, Maryland, USA
Distance from station: SSE 8mi, 13km
Updated: Sat, 30-Aug-2014 10:03pm EDT
Overcast
Overcast
 Wind from SE
Wind: SE 8 mph , 13 km/h
Temperature: 79°F , 26°C
Dew Point: 72°F , 22°C
Humidity: 79%
Barometer: 30.16 inHg , 1021.3 hPa
Clouds: Overcast
Visibility: 10 miles , 16 km
Cloud details: Mostly cloudy 3400 ft
Overcast 4600 ft
2014/08/31 02:03 KMTN 310203Z AUTO 14007KT 10SM BKN034 OVC046 26/22 A3016 RMK AO2
KDMH - Baltimore/Dwntwn, Maryland, USA
Distance from station: SW 12mi, 19km
Updated: Sat, 30-Aug-2014 9:54pm EDT

 
Temperature: 79°F , 26°C
Dew Point: 70°F , 21°C
Humidity: 74%
Barometer: 30.15 inHg , 1021 hPa
2014/08/31 01:54 KDMH 310154Z AUTO 26/21 A3015 RMK AO1 SLP209 T02560206
 
KBWI - Balto/Wash Intl, Maryland, USA
Distance from station: SSW 20mi, 33km
Updated: Sat, 30-Aug-2014 9:54pm EDT
Overcast
Overcast
 Wind from S
Wind: S 3 mph , 6 km/h
Temperature: 75°F , 24°C
Dew Point: 70°F , 21°C
Humidity: 83%
Barometer: 30.14 inHg , 1020.7 hPa
Clouds: Overcast
Visibility: 10 miles , 16 km
Cloud details: Mostly cloudy 3400 ft
Overcast 4400 ft
2014/08/31 01:54 KBWI 310154Z 18003KT 10SM BKN034 OVC044 24/21 A3014 RMK AO2 SLP205 T02440211
KDMW - Carroll Cnty, Maryland, USA
Distance from station: WNW 30mi, 48km
Updated: Sat, 30-Aug-2014 10:00pm EDT
Overcast
Overcast
 Wind from SSE
Wind: SSE 8 mph , 13 km/h
Temperature: 75°F , 24°C
Dew Point: 70°F , 21°C
Humidity: 83%
Barometer: 30.15 inHg , 1021 hPa
Clouds: Overcast
Visibility: 10 miles , 16 km
Cloud details: Mostly cloudy 2800 ft
Overcast 3500 ft
2014/08/31 02:00 KDMW 310200Z AUTO 15007KT 10SM BKN028 OVC035 24/21 A3015 RMK AO2
 
KNAK - Annapolis/Naval, Maryland, USA
Distance from station: S 30mi, 48km
Updated: Sat, 30-Aug-2014 9:54pm EDT
Overcast
Overcast
 Wind from S
Wind: S 9 mph , 15 km/h, Gust: 20 mph , 31 km/h
Temperature: 79°F , 26°C
Dew Point: 70°F , 21°C
Humidity: 74%
Barometer: 30.14 inHg , 1020.7 hPa
Clouds: Overcast
Visibility: 10 miles , 16 km
Cloud details: Overcast 3700 ft
2014/08/31 01:54 KNAK 310154Z AUTO 17008G17KT 10SM OVC037 26/21 A3014 RMK AO2 SLP209 T02560211
KW29 - Stevensville, Maryland, USA
Distance from station: SSE 31mi, 50km
Updated: Sat, 30-Aug-2014 10:02pm EDT

 Wind from SSE
Wind: SSE 9 mph , 15 km/h
Temperature: 77°F , 25°C
Dew Point: 68°F , 20°C
Humidity: 74%
Barometer: 30.15 inHg , 1021 hPa
Visibility: 10 miles , 16 km
2014/08/31 02:02 KW29 310202Z AUTO 15008KT 10SM 25/20 A3015 RMK AO1
 
KCGS - College Park, Maryland, USA
Distance from station: SW 38mi, 61km
Updated: Sat, 30-Aug-2014 10:00pm EDT
Mostly cloudy
Mostly cloudy
 Wind from SSE
Wind: SSE 5 mph , 7 km/h
Temperature: 77°F , 25°C
Dew Point: 70°F , 21°C
Humidity: 79%
Barometer: 30.14 inHg , 1020.7 hPa
Clouds: Mostly cloudy
Visibility: 10 miles , 16 km
Cloud details: Mostly cloudy 3200 ft
2014/08/31 02:00 KCGS 310200Z AUTO 15004KT 10SM BKN032 25/21 A3014 RMK AO1
KGAI - Gaithersburg, Maryland, USA
Distance from station: WSW 40mi, 65km
Updated: Sat, 30-Aug-2014 9:55pm EDT
Few Clouds
Few Clouds
 Wind from ESE
Wind: ESE 3 mph , 6 km/h
Temperature: 73°F , 23°C
Dew Point: 68°F , 20°C
Humidity: 83%
Barometer: 30.18 inHg , 1022 hPa
Clouds: Few Clouds
Visibility: 10 miles , 16 km
Cloud details: Few Clouds 4100 ft
2014/08/31 01:55 KGAI 310155Z AUTO 12003KT 10SM FEW041 23/20 A3018 RMK AO1
 
KTHV - York, Pennsylvania, USA
Distance from station: NNW 40mi, 65km
Updated: Sat, 30-Aug-2014 9:53pm EDT
Mostly cloudy
Mostly cloudy
 Wind from SE
Wind: SE 6 mph , 9 km/h
Temperature: 72°F , 22°C
Dew Point: 66°F , 19°C
Humidity: 83%
Barometer: 30.14 inHg , 1020.7 hPa
Clouds: Mostly cloudy
Visibility: 10 miles , 16 km
Cloud details: Mostly cloudy 3800 ft
2014/08/31 01:53 KTHV 310153Z AUTO 14005KT 10SM BKN038 22/19 A3014 RMK AO2 SLP205 T02220189
KFDK - Frederick, Maryland, USA
Distance from station: W 47mi, 75km
Updated: Sat, 30-Aug-2014 10:00pm EDT
Mostly cloudy
Mostly cloudy
 Wind from calm
Wind: Calm
Temperature: 75°F , 24°C
Dew Point: 72°F , 22°C
Humidity: 89%
Barometer: 30.15 inHg , 1021 hPa
Clouds: Mostly cloudy
Visibility: 10 miles , 16 km
Cloud details: Mostly cloudy 3700 ft
2014/08/31 02:00 KFDK 310200Z AUTO 00000KT 10SM BKN037 24/22 A3015 RMK AO2
 
KESN - Easton/Newnam, Maryland, USA
Distance from station: SSE 48mi, 78km
Updated: Sat, 30-Aug-2014 8:50pm EDT
NOT Current
Clear
Clear
 Wind from S
Wind: S 6 mph , 9 km/h
Temperature: 77°F , 25°C
Dew Point: 68°F , 20°C
Humidity: 74%
Barometer: 30.18 inHg , 1022 hPa
Clouds: Clear
Visibility: 10 miles , 16 km
2014/08/31 00:50 KESN 310050Z 18005KT 10SM SKC 25/20 A3018
KDCA - Washington/Natl, Washington D.c., USA
Distance from station: SW 49mi, 79km
Updated: Sat, 30-Aug-2014 9:52pm EDT
Mostly cloudy
Mostly cloudy
 Wind from SSE
Wind: SSE 6 mph , 9 km/h
Temperature: 79°F , 26°C
Dew Point: 70°F , 21°C
Humidity: 74%
Barometer: 30.14 inHg , 1020.7 hPa
Clouds: Mostly cloudy
Visibility: 10 miles , 16 km
Cloud details: Partly cloudy 3500 ft
Mostly cloudy 25000 ft
2014/08/31 01:52 KDCA 310152Z 15005KT 10SM SCT035 BKN250 26/21 A3014 RMK AO2 SLP207 T02610211
 
KLNS - Lancaster, Pennsylvania, USA
Distance from station: N 49mi, 79km
Updated: Sat, 30-Aug-2014 9:53pm EDT
Partly cloudy
Partly cloudy
 Wind from ESE
Wind: ESE 5 mph , 7 km/h
Temperature: 72°F , 22°C
Dew Point: 64°F , 18°C
Humidity: 78%
Barometer: 30.15 inHg , 1021 hPa
Clouds: Partly cloudy
Visibility: 10 miles , 16 km
Cloud details: Few Clouds 4200 ft
Partly cloudy 6500 ft
2014/08/31 01:53 KLNS 310153Z AUTO 12004KT 10SM FEW042 SCT065 22/18 A3015 RMK AO2 SLP208 T02170178 $
KILG - Wilmington, Delaware, USA
Distance from station: ENE 50mi, 81km
Updated: Sat, 30-Aug-2014 9:51pm EDT
Mostly cloudy
Mostly cloudy
 Wind from SE
Wind: SE 9 mph , 15 km/h
Temperature: 73°F , 23°C
Dew Point: 64°F , 18°C
Humidity: 74%
Barometer: 30.17 inHg , 1021.7 hPa
Clouds: Mostly cloudy
Visibility: 10 miles , 16 km
Cloud details: Mostly cloudy 3600 ft
Mostly cloudy 4600 ft
2014/08/31 01:51 KILG 310151Z 14008KT 10SM BKN036 BKN046 23/18 A3017 RMK AO2 SLP215 T02280183